createdAt,value
2018-03-03T00:00:29.846Z,99044.05
2018-03-03T00:02:58.377Z,99043.22
2018-03-03T00:05:26.636Z,99043.31
2018-03-03T00:07:53.742Z,99048.53
2018-03-03T00:10:20.840Z,99040.72
2018-03-03T00:12:49.760Z,99045.52
2018-03-03T00:15:16.908Z,99042.91
2018-03-03T00:17:44.778Z,99037.22
2018-03-03T00:20:12.639Z,99039.06
2018-03-03T00:22:40.900Z,99032.08
2018-03-03T00:25:09.118Z,99038.25
2018-03-03T00:27:37.000Z,99027.42
2018-03-03T00:30:05.605Z,99025.30
2018-03-03T00:32:33.106Z,99033.10
2018-03-03T00:35:01.321Z,99027.48
2018-03-03T00:37:30.078Z,99024.47
2018-03-03T00:39:57.569Z,99031.39
2018-03-03T00:42:24.645Z,99028.78
2018-03-03T00:44:51.721Z,99030.16
2018-03-03T00:47:18.824Z,99036.19
2018-03-03T00:49:47.042Z,99031.05
2018-03-03T00:52:14.117Z,99025.91
2018-03-03T00:54:41.233Z,99027.62
2018-03-03T00:57:09.088Z,99018.09
2018-03-03T00:59:36.943Z,99022.89
2018-03-03T01:02:05.158Z,99018.16
2018-03-03T01:04:32.253Z,99011.17
2018-03-03T01:07:00.118Z,99010.76
2018-03-03T01:09:27.976Z,99003.84
2018-03-03T01:11:55.055Z,99011.23
2018-03-03T01:14:22.907Z,99011.23
2018-03-03T01:16:51.126Z,99008.63
2018-03-03T01:19:19.342Z,99009.53
2018-03-03T01:21:47.554Z,99009.53
2018-03-03T01:24:14.625Z,99003.91
2018-03-03T01:26:41.714Z,99003.08
2018-03-03T01:29:09.185Z,99000.95
2018-03-03T01:31:37.031Z,98997.05
2018-03-03T01:34:05.246Z,98997.47
2018-03-03T01:36:32.348Z,99002.27
2018-03-03T01:38:59.425Z,98998.01
2018-03-03T01:41:26.932Z,99000.14
2018-03-03T01:43:54.052Z,98994.61
2018-03-03T01:46:21.149Z,98992.80
2018-03-03T01:48:49.766Z,98995.81
2018-03-03T01:51:16.897Z,98989.79
2018-03-03T01:53:45.238Z,98995.00
2018-03-03T01:56:13.960Z,98988.58
2018-03-03T01:58:41.062Z,98988.66
2018-03-03T02:01:09.291Z,98993.79
2018-03-03T02:03:37.530Z,98986.87
2018-03-03T02:06:05.756Z,98983.38
2018-03-03T02:08:34.012Z,98988.66
2018-03-03T02:11:01.875Z,98981.25
2018-03-03T02:13:28.986Z,98979.61
2018-03-03T02:15:56.844Z,98980.50
2018-03-03T02:18:24.998Z,98978.30
2018-03-03T02:20:52.864Z,98981.80
2018-03-03T02:23:20.748Z,98977.00
2018-03-03T02:25:47.825Z,98974.47
2018-03-03T02:28:14.951Z,98977.06
2018-03-03T02:30:42.831Z,98984.88
2018-03-03T02:33:10.738Z,98975.77
2018-03-03T02:35:37.825Z,98972.75
2018-03-03T02:38:04.948Z,98971.93
2018-03-03T02:40:32.815Z,98963.70
2018-03-03T02:42:59.937Z,98959.39
2018-03-03T02:45:27.839Z,98959.88
2018-03-03T02:47:55.701Z,98959.45
2018-03-03T02:50:23.931Z,98956.78
2018-03-03T02:52:51.812Z,98955.89
2018-03-03T02:55:18.895Z,98960.28
2018-03-03T02:57:47.745Z,98954.25
2018-03-03T03:00:14.845Z,98952.95
2018-03-03T03:02:41.965Z,98950.28
2018-03-03T03:05:09.808Z,98952.53
2018-03-03T03:07:36.906Z,98944.25
2018-03-03T03:10:05.646Z,98944.73
2018-03-03T03:12:32.740Z,98942.19
2018-03-03T03:14:59.820Z,98941.30
2018-03-03T03:17:27.712Z,98940.48
2018-03-03T03:19:54.794Z,98937.88
2018-03-03T03:22:21.888Z,98936.16
2018-03-03T03:24:48.975Z,98932.73
2018-03-03T03:27:17.199Z,98934.52
2018-03-03T03:29:45.437Z,98931.91
2018-03-03T03:32:13.649Z,98933.15
2018-03-03T03:34:42.406Z,98922.32
2018-03-03T03:37:09.907Z,98926.70
2018-03-03T03:39:38.665Z,98924.10
2018-03-03T03:42:06.579Z,98912.42
2018-03-03T03:44:34.798Z,98909.82
2018-03-03T03:47:03.009Z,98895.09
2018-03-03T03:49:30.862Z,98897.25
2018-03-03T03:51:57.934Z,98895.05
2018-03-03T03:54:25.012Z,98895.60
2018-03-03T03:56:52.868Z,98893.79
2018-03-03T03:59:21.455Z,98891.19
2018-03-03T04:01:48.923Z,98892.90
2018-03-03T04:04:17.659Z,98886.97
2018-03-03T04:06:45.152Z,98882.17
2018-03-03T04:09:13.367Z,98883.06
2018-03-03T04:11:42.089Z,98880.94
2018-03-03T04:14:09.575Z,98880.53
2018-03-03T04:16:37.804Z,98875.80
2018-03-03T04:19:04.901Z,98876.21
2018-03-03T04:21:31.990Z,98861.48
2018-03-03T04:23:59.495Z,98858.88
2018-03-03T04:26:27.728Z,98863.68
2018-03-03T04:28:55.949Z,98866.34
2018-03-03T04:31:23.803Z,98858.54
2018-03-03T04:33:50.901Z,98854.22
2018-03-03T04:36:18.009Z,98853.81
2018-03-03T04:38:45.486Z,98850.39
2018-03-03T04:41:12.589Z,98854.22
2018-03-03T04:43:39.684Z,98852.03
2018-03-03T04:46:07.912Z,98853.81
2018-03-03T04:48:35.023Z,98855.53
2018-03-03T04:51:03.271Z,98851.14
2018-03-03T04:53:31.512Z,98853.27
2018-03-03T04:55:59.737Z,98853.75
2018-03-03T05:01:38.707Z,98847.23
2018-03-03T05:04:09.704Z,98840.25
2018-03-03T05:06:38.309Z,98842.44
2018-03-03T05:09:05.788Z,98837.71
2018-03-03T05:11:34.023Z,98852.03
2018-03-03T05:14:12.961Z,98843.33
2018-03-03T05:19:50.758Z,98842.17
2018-03-03T05:22:24.588Z,98841.27
2018-03-03T05:24:58.738Z,98835.18
2018-03-03T05:30:40.665Z,98832.23
2018-03-03T05:33:14.448Z,98833.05
2018-03-03T05:35:57.213Z,98832.23
2018-03-03T05:38:31.431Z,98843.06
2018-03-03T05:44:11.217Z,98836.62
2018-03-03T05:46:39.075Z,98836.69
2018-03-03T05:49:24.654Z,98832.78
2018-03-03T05:52:10.032Z,98834.08
2018-03-03T05:54:42.877Z,98834.97
2018-03-03T06:00:25.485Z,98829.36
2018-03-03T06:03:08.793Z,98829.42
2018-03-03T06:05:42.627Z,98822.51
2018-03-03T06:08:12.623Z,98826.41
2018-03-03T06:10:41.358Z,98825.59
2018-03-03T06:13:10.442Z,98826.00
2018-03-03T06:15:38.296Z,98827.78
2018-03-03T06:18:05.802Z,98831.62
2018-03-03T06:20:34.036Z,98831.20
2018-03-03T06:23:01.152Z,98827.41
2018-03-03T06:25:29.007Z,98834.70
2018-03-03T06:27:56.120Z,98829.50
2018-03-03T06:30:24.863Z,98831.69
2018-03-03T06:32:51.961Z,98827.41
2018-03-03T06:35:20.722Z,98839.12
2018-03-03T06:37:47.821Z,98838.70
2018-03-03T06:40:16.555Z,98836.00
2018-03-03T06:42:45.185Z,98838.30
2018-03-03T06:45:13.030Z,98840.08
2018-03-03T06:47:41.264Z,98844.39
2018-03-03T06:50:09.165Z,98837.41
2018-03-03T06:52:36.288Z,98837.47
2018-03-03T06:55:03.375Z,98840.48
2018-03-03T06:57:31.217Z,98834.87
2018-03-03T06:59:59.071Z,98838.36
2018-03-03T07:02:26.932Z,98832.34
2018-03-03T07:04:54.015Z,98838.84
2018-03-03T07:07:21.089Z,98835.42
2018-03-03T07:09:49.319Z,98829.73
2018-03-03T07:12:17.169Z,98837.06
2018-03-03T07:17:47.473Z,98832.41
2018-03-03T07:20:14.946Z,98828.91
2018-03-03T07:22:43.181Z,98833.70
2018-03-03T07:25:11.044Z,98843.30
2018-03-03T07:27:38.924Z,98836.80
2018-03-03T07:30:07.142Z,98839.80
2018-03-03T07:32:34.990Z,98844.19
2018-03-03T07:35:02.086Z,98842.89
2018-03-03T07:37:29.170Z,98843.78
2018-03-03T07:39:57.032Z,98843.30
2018-03-03T07:42:25.288Z,98846.86
2018-03-03T07:44:53.152Z,98841.11
2018-03-03T07:47:21.367Z,98841.59
2018-03-03T07:49:49.585Z,98841.17
2018-03-03T07:52:17.053Z,98850.36
2018-03-03T07:54:44.130Z,98846.45
2018-03-03T07:57:11.977Z,98846.86
2018-03-03T07:59:39.073Z,98845.55
2018-03-03T08:02:07.285Z,98848.23
2018-03-03T08:04:35.501Z,98847.34
2018-03-03T08:07:03.733Z,98845.62
2018-03-03T08:09:31.209Z,98841.72
2018-03-03T08:11:58.303Z,98842.55
2018-03-03T08:14:25.379Z,98845.22
2018-03-03T08:16:54.131Z,98848.23
2018-03-03T08:19:21.610Z,98840.90
2018-03-03T08:21:49.839Z,98843.98
2018-03-03T08:24:16.924Z,98844.47
2018-03-03T08:26:44.015Z,98852.27
2018-03-03T08:29:11.500Z,98855.70
2018-03-03T08:31:39.347Z,98853.98
2018-03-03T08:34:07.593Z,98853.57
2018-03-03T08:36:35.810Z,98858.78
2018-03-03T08:39:02.890Z,98857.55
2018-03-03T08:41:30.734Z,98857.89
2018-03-03T08:43:57.890Z,98858.44
2018-03-03T08:46:25.734Z,98859.25
2018-03-03T08:48:53.617Z,98847.13
2018-03-03T08:51:21.878Z,98847.95
2018-03-03T08:53:50.136Z,98845.77
2018-03-03T08:56:17.216Z,98847.48
2018-03-03T08:58:45.091Z,98847.89
2018-03-03T09:01:13.324Z,98846.59
2018-03-03T09:03:41.190Z,98852.00
2018-03-03T09:06:09.043Z,98842.41
2018-03-03T09:08:37.282Z,98844.47
2018-03-03T09:11:04.380Z,98845.36
2018-03-03T09:13:33.142Z,98848.44
2018-03-03T09:16:01.378Z,98845.49
2018-03-03T09:18:29.270Z,98854.53
2018-03-03T09:20:57.114Z,98854.53
2018-03-03T09:23:24.194Z,98857.61
2018-03-03T09:25:52.054Z,98861.11
2018-03-03T09:28:19.130Z,98866.72
2018-03-03T09:30:47.346Z,98863.71
2018-03-03T09:33:14.836Z,98869.42
2018-03-03T09:35:41.917Z,98874.70
2018-03-03T09:38:09.020Z,98879.84
2018-03-03T09:40:37.237Z,98881.20
2018-03-03T09:43:05.115Z,98889.08
2018-03-03T09:45:32.335Z,98887.78
2018-03-03T09:47:59.443Z,98883.47
2018-03-03T09:50:27.324Z,98886.00
2018-03-03T09:52:55.228Z,98881.75
2018-03-03T09:55:23.466Z,98885.18
2018-03-03T09:57:51.337Z,98888.19
2018-03-03T10:00:19.199Z,98880.45
2018-03-03T10:02:47.476Z,98880.38
2018-03-03T10:05:16.089Z,98881.20
2018-03-03T10:07:44.170Z,98888.19
2018-03-03T10:10:11.660Z,98886.89
2018-03-03T10:12:39.927Z,98890.80
2018-03-03T10:15:07.797Z,98888.19
2018-03-03T10:17:34.882Z,98889.49
2018-03-03T10:20:03.620Z,98894.70
2018-03-03T10:22:30.719Z,98889.02
2018-03-03T10:24:59.339Z,98888.60
2018-03-03T10:27:27.229Z,98888.60
2018-03-03T10:29:55.994Z,98889.91
2018-03-03T10:32:23.085Z,98882.58
2018-03-03T10:34:51.331Z,98883.39
2018-03-03T10:37:19.193Z,98885.59
2018-03-03T10:39:47.695Z,98885.59
2018-03-03T10:42:15.178Z,98883.88
2018-03-03T10:44:43.405Z,98881.75
2018-03-03T10:47:11.268Z,98882.23
2018-03-03T10:49:39.510Z,98882.23
2018-03-03T10:52:07.462Z,98876.55
2018-03-03T10:54:35.684Z,98882.23
2018-03-03T10:57:02.757Z,98880.93
2018-03-03T10:59:29.860Z,98877.51
2018-03-03T11:01:57.352Z,98879.70
2018-03-03T11:04:25.586Z,98876.27
2018-03-03T11:06:54.175Z,98884.49
2018-03-03T11:09:21.647Z,98887.98
2018-03-03T11:11:49.863Z,98887.98
2018-03-03T11:14:18.101Z,98888.47
2018-03-03T11:16:46.313Z,98894.36
2018-03-03T11:19:13.415Z,98891.20
2018-03-03T11:21:41.258Z,98887.30
2018-03-03T11:24:09.494Z,98885.05
2018-03-03T11:26:37.352Z,98890.49
2018-03-03T11:29:05.215Z,98890.42
2018-03-03T11:31:32.307Z,98898.09
2018-03-03T11:33:59.396Z,98898.09
2018-03-03T11:36:27.256Z,98896.80
2018-03-03T11:38:54.342Z,98895.02
2018-03-03T11:41:22.195Z,98894.60
2018-03-03T11:43:50.411Z,98897.62
2018-03-03T11:46:18.335Z,98894.53
2018-03-03T11:48:45.409Z,98896.72
2018-03-03T11:51:13.257Z,98900.56
2018-03-03T11:53:40.333Z,98899.73
2018-03-03T11:56:08.192Z,98894.88
2018-03-03T11:58:35.289Z,98895.36
2018-03-03T12:01:04.013Z,98902.28
2018-03-03T12:03:31.502Z,98897.14
2018-03-03T12:05:59.432Z,98897.55
2018-03-03T12:08:28.035Z,98882.75
2018-03-03T12:10:55.156Z,98880.22
2018-03-03T12:13:22.647Z,98893.16
2018-03-03T12:15:51.387Z,98894.88
2018-03-03T12:18:19.244Z,98892.69
2018-03-03T12:20:47.453Z,98897.48
2018-03-03T12:23:15.298Z,98899.19
2018-03-03T12:25:43.523Z,98903.58
2018-03-03T12:28:11.388Z,98904.39
2018-03-03T12:30:39.615Z,98905.77
2018-03-03T12:33:07.849Z,98907.55
2018-03-03T12:35:36.076Z,98906.18
2018-03-03T12:38:03.941Z,98913.03
2018-03-03T12:40:32.159Z,98917.00
2018-03-03T12:42:59.253Z,98912.62
2018-03-03T12:45:27.481Z,98912.20
2018-03-03T12:47:55.351Z,98912.69
2018-03-03T12:50:22.443Z,98910.13
2018-03-03T12:52:50.314Z,98905.56
2018-03-03T12:55:18.154Z,98908.38
2018-03-03T12:57:46.904Z,98909.67
2018-03-03T13:00:15.509Z,98907.14
2018-03-03T13:02:44.133Z,98909.27
2018-03-03T13:05:11.997Z,98908.03
2018-03-03T13:07:39.483Z,98910.22
2018-03-03T13:10:07.325Z,98909.67
2018-03-03T13:12:35.975Z,98907.96
2018-03-03T13:15:04.094Z,98914.53
2018-03-03T13:17:31.957Z,98911.17
2018-03-03T13:19:59.039Z,98911.17
2018-03-03T13:22:26.136Z,98909.47
2018-03-03T13:24:53.628Z,98909.53
2018-03-03T13:27:21.488Z,98908.98
2018-03-03T13:29:49.705Z,98905.91
2018-03-03T13:32:17.932Z,98904.39
2018-03-03T13:34:46.151Z,98899.95
2018-03-03T13:37:14.362Z,98901.91
2018-03-03T13:39:41.461Z,98902.31
2018-03-03T13:42:09.306Z,98903.89
2018-03-03T13:44:36.386Z,98899.92
2018-03-03T13:47:03.480Z,98905.05
2018-03-03T13:49:30.558Z,98906.77
2018-03-03T13:51:57.636Z,98908.89
2018-03-03T13:54:25.500Z,98908.83
2018-03-03T13:56:53.733Z,98904.03
2018-03-03T13:59:20.810Z,98904.44
2018-03-03T14:01:47.894Z,98891.42
2018-03-03T14:04:16.482Z,98899.98
2018-03-03T14:06:43.581Z,98897.80
2018-03-03T14:09:11.425Z,98891.59
2018-03-03T14:11:38.502Z,98885.98
2018-03-03T14:14:06.351Z,98892.04
2018-03-03T14:16:33.443Z,98896.36
2018-03-03T14:19:01.293Z,98898.00
2018-03-03T14:21:31.373Z,98894.09
2018-03-03T14:23:59.699Z,98892.73
2018-03-03T14:26:27.540Z,98900.95
2018-03-03T14:28:55.754Z,98901.84
2018-03-03T14:31:23.914Z,98906.22
2018-03-03T14:33:51.434Z,98910.47
2018-03-03T14:36:18.522Z,98906.09
2018-03-03T14:38:45.612Z,98912.66
2018-03-03T14:41:13.474Z,98909.17
2018-03-03T14:43:41.694Z,98910.81
2018-03-03T14:46:09.560Z,98911.22
2018-03-03T14:48:38.295Z,98910.75
2018-03-03T14:51:05.520Z,98910.75
2018-03-03T14:53:34.136Z,98914.99
2018-03-03T14:56:02.350Z,98908.89
2018-03-03T14:58:29.454Z,98912.32
2018-03-03T15:00:58.055Z,98914.86
2018-03-03T15:03:25.664Z,98908.83
2018-03-03T15:05:53.877Z,98913.97
2018-03-03T15:08:22.495Z,98919.99
2018-03-03T15:10:49.984Z,98922.59
2018-03-03T15:13:17.149Z,98916.56
2018-03-03T15:15:44.257Z,98925.10
2018-03-03T15:18:11.923Z,98916.40
2018-03-03T15:20:40.808Z,98925.10
2018-03-03T15:23:07.906Z,98930.24
2018-03-03T15:25:36.121Z,98927.57
2018-03-03T15:28:04.690Z,98933.26
2018-03-03T15:30:33.430Z,98939.70
2018-03-03T15:33:00.541Z,98934.42
2018-03-03T15:35:28.313Z,98933.13
2018-03-03T15:37:57.845Z,98932.23
2018-03-03T15:40:26.588Z,98936.14
2018-03-03T15:42:54.403Z,98937.84
2018-03-03T15:45:23.005Z,98937.78
2018-03-03T15:47:52.377Z,98931.27
2018-03-03T15:50:20.195Z,98935.17
2018-03-03T15:52:49.160Z,98941.62
2018-03-03T15:55:17.894Z,98937.78
2018-03-03T15:57:47.634Z,98930.45
2018-03-03T16:00:16.221Z,98935.25
2018-03-03T16:02:45.568Z,98941.34
2018-03-03T16:05:14.030Z,98944.91
2018-03-03T16:07:42.098Z,98944.91
2018-03-03T16:10:11.017Z,98946.14
2018-03-03T16:12:40.445Z,98942.23
2018-03-03T16:15:07.754Z,98945.18
2018-03-03T16:17:36.760Z,98942.51
2018-03-03T16:20:04.642Z,98939.84
2018-03-03T16:22:32.213Z,98948.53
2018-03-03T16:25:00.189Z,98944.16
2018-03-03T16:27:29.407Z,98950.53
2018-03-03T16:29:57.023Z,98944.09
2018-03-03T16:32:26.498Z,98945.32
2018-03-03T16:34:54.477Z,98947.92
2018-03-03T16:37:22.869Z,98942.65
2018-03-03T16:39:50.337Z,98952.17
2018-03-03T16:42:17.911Z,98949.98
2018-03-03T16:44:46.303Z,98950.77
2018-03-03T16:47:13.669Z,98953.38
2018-03-03T16:49:41.541Z,98943.78
2018-03-03T16:52:09.771Z,98955.50
2018-03-03T16:54:37.628Z,98948.51
2018-03-03T16:57:06.366Z,98947.62
2018-03-03T16:59:33.452Z,98945.02
2018-03-03T17:02:00.925Z,98949.33
2018-03-03T17:04:28.119Z,98954.06
2018-03-03T17:06:55.231Z,98953.58
2018-03-03T17:09:22.427Z,98955.30
2018-03-03T17:11:50.675Z,98951.39
2018-03-03T17:14:17.875Z,98956.53
2018-03-03T17:16:45.412Z,98956.12
2018-03-03T17:19:12.499Z,98958.24
2018-03-03T17:21:40.412Z,98956.94
2018-03-03T17:24:07.581Z,98961.67
2018-03-03T17:26:34.674Z,98962.97
2018-03-03T17:29:01.772Z,98963.80
2018-03-03T17:31:29.982Z,98968.11
2018-03-03T17:33:58.198Z,98964.61
2018-03-03T17:36:26.433Z,98966.73
2018-03-03T17:38:53.510Z,98967.16
2018-03-03T17:41:21.477Z,98961.53
2018-03-03T17:43:49.897Z,98964.06
2018-03-03T17:46:17.756Z,98967.08
2018-03-03T17:48:46.175Z,98965.30
2018-03-03T17:51:13.711Z,98962.70
2018-03-03T17:53:40.868Z,98970.03
2018-03-03T17:56:09.583Z,98963.93
2018-03-03T17:58:37.804Z,98969.93
2018-03-03T18:01:05.774Z,98969.04
2018-03-03T18:03:33.675Z,98970.34
2018-03-03T18:06:01.903Z,98975.48
2018-03-03T18:08:30.520Z,98971.98
2018-03-03T18:10:59.270Z,98966.36
2018-03-03T18:13:26.395Z,98968.97
2018-03-03T18:15:54.238Z,98976.38
2018-03-03T18:18:21.742Z,98971.51
2018-03-03T18:20:50.492Z,98980.55
2018-03-03T18:23:17.754Z,98977.06
2018-03-03T18:25:46.485Z,98977.54
2018-03-03T18:28:14.811Z,98976.17
2018-03-03T18:30:42.042Z,98978.70
2018-03-03T18:33:09.918Z,98974.80
2018-03-03T18:35:37.934Z,98983.50
2018-03-03T18:38:05.374Z,98983.02
2018-03-03T18:40:34.096Z,98986.93
2018-03-03T18:43:02.919Z,98991.18
2018-03-03T18:45:30.363Z,98991.25
2018-03-03T18:47:58.344Z,98991.59
2018-03-03T18:50:27.046Z,98995.09
2018-03-03T18:52:54.203Z,98994.13
2018-03-03T18:55:22.060Z,98998.45
2018-03-03T18:57:50.327Z,98998.45
2018-03-03T19:00:17.458Z,98998.03
2018-03-03T19:02:44.707Z,99003.66
2018-03-03T19:05:11.859Z,99003.11
2018-03-03T19:07:39.238Z,99004.48
2018-03-03T19:10:06.517Z,99005.30
2018-03-03T19:12:35.418Z,99006.54
2018-03-03T19:15:04.722Z,99013.94
2018-03-03T19:17:32.935Z,99015.66
2018-03-03T19:20:01.086Z,99009.94
2018-03-03T19:22:30.501Z,99016.45
2018-03-03T19:24:58.894Z,99018.16
2018-03-03T19:27:26.467Z,99015.97
2018-03-03T19:29:54.169Z,99019.39
2018-03-03T19:32:22.702Z,99024.13
2018-03-03T19:34:49.941Z,99030.63
2018-03-03T19:37:17.986Z,99021.93
2018-03-03T19:39:46.478Z,99024.53
2018-03-03T19:42:14.564Z,99028.85
2018-03-03T19:44:42.495Z,99026.25
2018-03-03T19:47:11.387Z,99031.80
2018-03-03T19:49:40.119Z,99032.70
2018-03-03T19:52:07.685Z,99029.20
2018-03-03T19:54:36.518Z,99031.33
2018-03-03T19:57:05.423Z,99024.81
2018-03-03T19:59:32.547Z,99032.22
2018-03-03T20:01:59.790Z,99030.84
2018-03-03T20:04:28.616Z,99037.70
2018-03-03T20:06:55.900Z,99036.47
2018-03-03T20:09:24.764Z,99038.59
2018-03-03T20:11:52.823Z,99039.83
2018-03-03T20:14:20.682Z,99039.00
2018-03-03T20:16:47.917Z,99045.03
2018-03-03T20:19:15.827Z,99049.29
2018-03-03T20:21:44.009Z,99038.87
2018-03-03T20:24:13.636Z,99037.22
2018-03-03T20:26:43.150Z,99034.14
2018-03-03T20:29:10.820Z,99030.23
2018-03-03T20:31:38.356Z,99023.78
2018-03-03T20:34:06.522Z,99025.16
2018-03-03T20:36:34.677Z,99020.42
2018-03-03T20:39:02.866Z,99021.80
2018-03-03T20:41:30.066Z,99023.09
2018-03-03T20:43:57.591Z,99023.09
2018-03-03T20:46:24.967Z,99019.47
2018-03-03T20:48:52.643Z,99015.48
2018-03-03T20:51:20.580Z,99015.83
2018-03-03T20:53:49.416Z,99010.63
2018-03-03T20:56:16.960Z,99006.58
2018-03-03T20:58:44.864Z,99004.86
2018-03-03T21:01:13.669Z,99007.37
2018-03-03T21:03:42.158Z,99002.56
2018-03-03T21:06:10.603Z,99008.60
2018-03-03T21:08:37.919Z,99007.78
2018-03-03T21:11:07.742Z,99007.23
2018-03-03T21:13:35.727Z,99006.82
2018-03-03T21:16:03.687Z,99005.52
2018-03-03T21:18:33.144Z,99005.52
2018-03-03T21:21:01.207Z,99006.75
2018-03-03T21:23:31.000Z,99006.27
2018-03-03T21:25:59.284Z,99004.97
2018-03-03T21:28:26.536Z,99011.00
2018-03-03T21:30:54.570Z,99013.13
2018-03-03T21:33:22.167Z,99008.81
2018-03-03T21:35:51.148Z,99013.06
2018-03-03T21:38:18.822Z,99011.41
2018-03-03T21:40:46.136Z,99013.88
2018-03-03T21:43:14.172Z,99011.75
2018-03-03T21:45:42.460Z,99012.17
2018-03-03T21:48:10.292Z,99008.26
2018-03-03T21:50:38.589Z,99009.02
2018-03-03T21:53:06.611Z,99003.73
2018-03-03T21:55:34.800Z,99003.80
2018-03-03T21:58:02.577Z,99002.50
2018-03-03T22:00:31.348Z,98996.94
2018-03-03T22:02:58.743Z,98990.36
2018-03-03T22:22:27.011Z,99003.19
2018-03-03T22:24:54.924Z,98998.05
2018-03-03T22:27:22.766Z,99000.65
2018-03-03T22:39:27.649Z,99005.86
2018-03-03T22:41:56.388Z,99003.32
2018-03-03T22:44:24.612Z,99003.80
2018-03-03T22:46:52.096Z,99002.09
